Time;durP1;ratioP1;P1;durP2;ratioP2;P2;SDS_P1;SDS_P2;PMS_P1;PMS_P2;Temp;Humidity;BMP_temperature;BMP_pressure;BME280_temperature;BME280_humidity;BME280_pressure;Samples;Min_cycle;Max_cycle;Signal;HPM_P1;HPM_P2
2022/09/01 00:02:28;;;;;;;2.97;1.13;;;17.50;99.90;;;;;;4987391;28;20883;-53
2022/09/01 00:04:59;;;;;;;2.43;0.90;;;17.40;99.90;;;;;;4988908;28;20775;-53
2022/09/01 00:07:31;;;;;;;1.47;1.00;;;17.40;99.90;;;;;;4984052;28;20229;-53
2022/09/01 00:09:58;;;;;;;1.20;1.07;;;17.30;99.90;;;;;;4991802;28;20658;-55
2022/09/01 00:12:26;;;;;;;2.97;1.23;;;17.40;99.90;;;;;;4991318;28;20293;-55
2022/09/01 00:14:53;;;;;;;1.47;1.20;;;17.30;99.90;;;;;;4988671;28;20295;-53
2022/09/01 00:17:20;;;;;;;0.97;0.87;;;17.40;99.90;;;;;;4985497;28;20724;-54
2022/09/01 00:19:48;;;;;;;1.57;1.33;;;17.40;99.90;;;;;;4988262;28;20328;-53
2022/09/01 00:22:15;;;;;;;1.37;1.20;;;17.30;99.90;;;;;;4985743;28;20227;-53
2022/09/01 00:24:42;;;;;;;1.93;1.13;;;17.40;99.90;;;;;;4994568;28;20212;-54
2022/09/01 00:27:09;;;;;;;1.03;0.80;;;17.10;99.90;;;;;;4986539;28;20862;-52
2022/09/01 00:29:35;;;;;;;2.13;0.90;;;17.00;99.90;;;;;;4985310;28;20209;-52
2022/09/01 00:32:03;;;;;;;1.53;1.03;;;17.00;99.90;;;;;;4992346;28;20198;-54
2022/09/01 00:34:30;;;;;;;1.10;1.00;;;17.20;99.90;;;;;;4993622;28;20293;-54
2022/09/01 00:36:57;;;;;;;1.57;1.10;;;17.10;99.90;;;;;;4996410;28;20279;-53
2022/09/01 00:39:24;;;;;;;2.80;0.90;;;16.80;99.90;;;;;;4995145;28;20372;-54
2022/09/01 00:41:51;;;;;;;2.67;1.00;;;16.80;99.90;;;;;;4994614;28;20201;-54
2022/09/01 00:44:25;;;;;;;2.37;1.20;;;17.00;99.90;;;;;;4992196;28;20226;-53
2022/09/01 00:46:56;;;;;;;1.33;1.00;;;16.90;99.90;;;;;;4991070;28;20224;-52
2022/09/01 00:49:32;;;;;;;3.70;1.20;;;17.00;99.90;;;;;;4989404;28;20663;-53
2022/09/01 00:52:35;;;;;;;1.27;1.03;;;17.00;99.90;;;;;;4988536;28;20205;-53
2022/09/01 00:55:10;;;;;;;4.00;1.20;;;17.00;99.90;;;;;;4984194;28;20315;-53
2022/09/01 00:57:38;;;;;;;2.07;1.10;;;16.90;99.90;;;;;;4991645;28;20288;-53
2022/09/01 01:00:19;;;;;;;8.47;1.80;;;16.90;99.90;;;;;;4991116;28;20761;-53
2022/09/01 01:02:47;;;;;;;2.63;1.30;;;16.90;99.90;;;;;;4992703;28;20198;-53
2022/09/01 01:05:15;;;;;;;3.13;1.20;;;16.80;99.90;;;;;;4991772;28;20210;-53
2022/09/01 01:07:45;;;;;;;2.93;1.50;;;16.90;99.90;;;;;;4988570;28;20311;-53
2022/09/01 01:10:16;;;;;;;1.53;1.40;;;17.00;99.90;;;;;;4980116;28;20197;-53
2022/09/01 01:12:43;;;;;;;2.00;1.20;;;16.90;99.90;;;;;;4991369;28;20245;-53
2022/09/01 01:15:11;;;;;;;1.40;1.07;;;16.90;99.90;;;;;;4990342;28;20198;-55
2022/09/01 01:17:39;;;;;;;3.77;1.27;;;16.70;99.90;;;;;;4992093;28;20209;-54
2022/09/01 01:23:14;;;;;;;3.33;1.43;;;16.80;99.90;;;;;;4994022;28;20264;-52
2022/09/01 01:25:48;;;;;;;1.40;1.20;;;16.60;99.90;;;;;;4991021;28;20215;-54
2022/09/01 01:28:25;;;;;;;1.40;1.30;;;16.70;99.90;;;;;;4982700;28;20252;-54
2022/09/01 01:31:21;;;;;;;1.57;1.40;;;16.70;99.90;;;;;;4986074;28;20196;-53
2022/09/01 01:33:54;;;;;;;2.00;1.40;;;16.70;99.90;;;;;;4990984;28;20213;-53
2022/09/01 01:36:32;;;;;;;2.07;1.50;;;16.70;99.90;;;;;;4987330;28;20791;-54
2022/09/01 01:39:03;;;;;;;1.80;1.33;;;16.60;99.90;;;;;;4993983;28;20292;-54
2022/09/01 01:41:31;;;;;;;3.83;1.70;;;16.70;99.90;;;;;;4992665;28;20288;-52
2022/09/01 01:44:03;;;;;;;2.80;1.50;;;16.60;99.90;;;;;;4996751;28;20280;-53
2022/09/01 01:46:32;;;;;;;1.90;1.43;;;16.70;99.90;;;;;;4992797;28;20213;-52
2022/09/01 01:49:01;;;;;;;1.37;1.13;;;16.80;99.90;;;;;;4988152;28;20222;-53
2022/09/01 01:51:30;;;;;;;2.20;1.60;;;16.80;99.90;;;;;;4984779;28;20231;-52
2022/09/01 01:54:04;;;;;;;2.90;1.57;;;16.70;99.90;;;;;;4993028;28;20301;-53
2022/09/01 01:56:34;;;;;;;2.80;1.37;;;16.80;99.90;;;;;;4991329;28;20210;-53
2022/09/01 01:59:01;;;;;;;2.80;1.50;;;16.60;99.90;;;;;;4996183;28;20276;-53
2022/09/01 02:01:30;;;;;;;2.60;1.40;;;16.50;99.90;;;;;;4991488;28;20447;-53
2022/09/01 02:03:59;;;;;;;3.23;1.60;;;16.50;99.90;;;;;;4985915;28;20207;-53
2022/09/01 02:06:28;;;;;;;1.43;1.27;;;16.50;99.90;;;;;;4994788;28;20206;-53
2022/09/01 02:08:57;;;;;;;2.80;1.40;;;16.50;99.90;;;;;;4994636;28;20226;-53
2022/09/01 02:11:25;;;;;;;3.10;1.43;;;16.60;99.90;;;;;;4993255;28;20283;-53
2022/09/01 02:13:56;;;;;;;1.90;1.40;;;16.40;99.90;;;;;;4992732;28;21783;-53
2022/09/01 02:16:29;;;;;;;1.37;1.27;;;16.40;99.90;;;;;;4992539;28;20207;-53
2022/09/01 02:18:56;;;;;;;5.00;1.47;;;16.40;99.90;;;;;;4993934;28;20205;-53
2022/09/01 02:21:24;;;;;;;3.23;1.73;;;16.40;99.90;;;;;;4989369;28;20299;-53
2022/09/01 02:24:00;;;;;;;2.23;1.30;;;16.40;99.90;;;;;;4992478;28;20673;-53
2022/09/01 02:26:36;;;;;;;2.90;1.50;;;16.50;99.90;;;;;;4990523;28;20916;-52
2022/09/01 02:29:07;;;;;;;3.57;1.50;;;16.40;99.90;;;;;;4990823;28;20245;-51
2022/09/01 02:31:38;;;;;;;2.30;1.50;;;16.40;99.90;;;;;;4989456;28;20292;-53
2022/09/01 02:34:12;;;;;;;2.27;1.67;;;16.50;99.90;;;;;;4993997;28;20214;-53
2022/09/01 02:36:48;;;;;;;2.40;2.17;;;16.50;99.90;;;;;;4987390;28;20705;-52
2022/09/01 02:39:27;;;;;;;3.40;1.53;;;16.50;99.90;;;;;;4977994;28;20240;-53
2022/09/01 02:41:54;;;;;;;1.70;1.30;;;16.60;99.90;;;;;;4992490;28;20231;-53
2022/09/01 02:44:21;;;;;;;2.10;1.53;;;16.50;99.90;;;;;;4995140;28;20803;-53
2022/09/01 02:46:49;;;;;;;3.10;1.90;;;16.50;99.90;;;;;;4985789;28;20205;-52
2022/09/01 02:49:24;;;;;;;2.47;1.70;;;16.50;99.90;;;;;;4989583;28;20670;-52
2022/09/01 02:51:52;;;;;;;4.47;1.80;;;16.40;99.90;;;;;;4985064;28;20969;-53
2022/09/01 02:54:21;;;;;;;1.50;1.40;;;16.40;99.90;;;;;;4990445;28;20642;-53
2022/09/01 02:56:49;;;;;;;1.80;1.60;;;16.50;99.90;;;;;;4991801;28;20206;-53
2022/09/01 02:59:20;;;;;;;4.23;1.73;;;16.50;99.90;;;;;;4987530;28;20626;-53
2022/09/01 03:01:52;;;;;;;4.50;1.90;;;16.40;99.90;;;;;;4989140;28;20262;-52
2022/09/01 03:04:21;;;;;;;1.63;1.40;;;16.40;99.90;;;;;;4990852;28;20238;-53
2022/09/01 03:06:49;;;;;;;4.07;1.70;;;16.30;99.90;;;;;;4986144;28;20420;-54
2022/09/01 03:09:18;;;;;;;3.67;1.60;;;16.30;99.90;;;;;;4989636;28;20249;-59
2022/09/01 03:11:48;;;;;;;3.43;1.83;;;16.40;99.90;;;;;;4988533;28;20222;-52
2022/09/01 03:14:15;;;;;;;4.03;1.87;;;16.30;99.90;;;;;;4989657;28;20205;-53
2022/09/01 03:16:43;;;;;;;3.97;1.73;;;16.40;99.90;;;;;;4988780;28;20222;-53
2022/09/01 03:19:10;;;;;;;2.30;2.00;;;16.40;99.90;;;;;;4986710;28;20232;-53
2022/09/01 03:21:40;;;;;;;1.50;1.37;;;16.30;99.90;;;;;;4987728;28;21431;-51
2022/09/01 03:24:13;;;;;;;4.63;2.10;;;16.40;99.90;;;;;;4992216;28;20633;-53
2022/09/01 03:26:42;;;;;;;2.67;1.83;;;16.30;99.90;;;;;;4988500;28;20224;-53
2022/09/01 03:29:09;;;;;;;1.67;1.57;;;16.30;99.90;;;;;;4988663;28;20273;-53
2022/09/01 03:31:37;;;;;;;2.57;1.83;;;16.30;99.90;;;;;;4987673;28;20202;-53
2022/09/01 03:34:04;;;;;;;3.73;1.80;;;16.20;99.90;;;;;;4987677;28;20783;-53
2022/09/01 03:36:32;;;;;;;1.83;1.50;;;16.20;99.90;;;;;;4990836;28;20206;-53
2022/09/01 03:39:00;;;;;;;1.80;1.60;;;16.30;99.90;;;;;;4993219;28;20304;-53
2022/09/01 03:41:29;;;;;;;2.10;1.90;;;16.20;99.90;;;;;;4989605;28;20256;-53
2022/09/01 03:43:57;;;;;;;1.70;1.60;;;16.20;99.90;;;;;;4990004;28;20635;-52
2022/09/01 03:46:28;;;;;;;2.00;1.53;;;16.30;99.90;;;;;;4987146;28;20677;-53
2022/09/01 03:49:05;;;;;;;3.73;1.90;;;16.30;99.90;;;;;;4987267;28;20681;-51
2022/09/01 03:51:32;;;;;;;5.60;1.60;;;16.20;99.90;;;;;;4988269;28;20871;-52
2022/09/01 03:53:59;;;;;;;3.30;1.77;;;16.10;99.90;;;;;;4989540;28;20818;-53
2022/09/01 03:56:27;;;;;;;2.87;1.50;;;16.20;99.90;;;;;;4990340;28;20235;-54
2022/09/01 03:58:56;;;;;;;2.70;1.67;;;16.20;99.90;;;;;;4988932;28;20209;-53
2022/09/01 04:01:26;;;;;;;4.03;1.80;;;16.10;99.90;;;;;;4984510;28;20214;-53
2022/09/01 04:03:53;;;;;;;3.07;1.73;;;16.20;99.90;;;;;;4994773;28;20206;-53
2022/09/01 04:06:22;;;;;;;2.17;1.90;;;16.10;99.90;;;;;;4993322;28;20214;-51
2022/09/01 04:09:01;;;;;;;3.17;1.83;;;16.10;99.90;;;;;;5000043;28;20713;-53
2022/09/01 04:11:29;;;;;;;3.20;1.70;;;16.20;99.90;;;;;;4987812;28;20206;-54
2022/09/01 04:13:57;;;;;;;3.03;1.60;;;16.20;99.90;;;;;;4990498;28;20216;-53
2022/09/01 04:19:24;;;;;;;2.13;1.50;;;16.20;99.90;;;;;;4989657;28;20211;-53
2022/09/01 04:21:58;;;;;;;4.27;1.80;;;16.10;99.90;;;;;;4983849;28;20200;-53
2022/09/01 04:24:28;;;;;;;1.97;1.77;;;16.00;99.90;;;;;;4989930;28;20206;-53
2022/09/01 04:26:57;;;;;;;2.90;2.20;;;16.00;99.90;;;;;;4990008;28;20674;-53
2022/09/01 04:29:28;;;;;;;3.30;1.73;;;16.00;99.90;;;;;;4981586;28;20700;-52
2022/09/01 04:32:02;;;;;;;2.00;1.70;;;16.00;99.90;;;;;;4988087;28;20205;-52
2022/09/01 04:34:39;;;;;;;1.90;1.80;;;16.00;99.90;;;;;;4990914;28;20352;-54
2022/09/01 04:37:12;;;;;;;2.00;1.80;;;15.90;99.90;;;;;;4990454;28;20233;-53
2022/09/01 04:39:47;;;;;;;4.60;1.77;;;15.90;99.90;;;;;;4991285;28;20219;-53
2022/09/01 04:42:22;;;;;;;3.73;2.00;;;15.90;99.90;;;;;;4988349;28;20757;-53
2022/09/01 04:44:53;;;;;;;1.83;1.70;;;15.80;99.90;;;;;;4986968;28;20212;-53
2022/09/01 04:47:28;;;;;;;3.70;2.20;;;15.90;99.90;;;;;;4982743;28;20227;-53
2022/09/01 04:50:03;;;;;;;2.10;1.77;;;15.80;99.90;;;;;;4989845;28;20243;-53
2022/09/01 04:52:30;;;;;;;3.30;1.90;;;15.80;99.90;;;;;;4986141;28;20198;-53
2022/09/01 04:54:57;;;;;;;2.17;1.60;;;15.80;99.90;;;;;;4992625;28;20337;-53
2022/09/01 04:57:26;;;;;;;6.93;1.80;;;15.80;99.90;;;;;;4987176;28;20201;-52
2022/09/01 04:59:55;;;;;;;3.13;2.20;;;15.80;99.90;;;;;;4988281;28;20561;-53
2022/09/01 05:02:25;;;;;;;1.93;1.67;;;15.80;99.90;;;;;;4989399;28;20210;-53
2022/09/01 05:04:53;;;;;;;4.27;1.83;;;15.80;99.90;;;;;;4985873;28;20209;-52
2022/09/01 05:07:20;;;;;;;3.77;1.87;;;15.80;99.90;;;;;;4989007;28;20300;-53
2022/09/01 05:09:47;;;;;;;3.27;1.63;;;15.80;99.90;;;;;;4982598;28;20690;-53
2022/09/01 05:12:15;;;;;;;2.27;1.73;;;15.80;99.90;;;;;;4991612;28;20612;-51
2022/09/01 05:14:47;;;;;;;4.07;2.00;;;15.80;99.90;;;;;;4988132;28;20206;-53
2022/09/01 05:17:16;;;;;;;2.80;1.83;;;15.80;99.90;;;;;;4990536;28;20544;-53
2022/09/01 05:19:46;;;;;;;5.27;1.90;;;15.80;99.90;;;;;;4993098;28;20816;-52
2022/09/01 05:22:14;;;;;;;3.67;2.00;;;15.80;99.90;;;;;;4989751;28;20207;-53
2022/09/01 05:24:41;;;;;;;3.33;1.80;;;15.80;99.90;;;;;;4992410;28;20208;-52
2022/09/01 05:27:09;;;;;;;2.83;2.00;;;15.80;99.90;;;;;;4992481;28;20206;-53
2022/09/01 05:29:37;;;;;;;2.60;1.80;;;15.70;99.90;;;;;;4994457;28;20213;-53
2022/09/01 05:32:08;;;;;;;2.93;1.80;;;15.80;99.90;;;;;;4991250;28;20690;-53
2022/09/01 05:34:37;;;;;;;3.17;2.10;;;15.80;99.90;;;;;;4995273;28;20208;-53
2022/09/01 05:37:07;;;;;;;4.07;1.90;;;15.70;99.90;;;;;;4991199;28;20229;-53
2022/09/01 05:39:36;;;;;;;3.03;1.83;;;15.70;99.90;;;;;;4992350;28;20264;-53
2022/09/01 05:42:06;;;;;;;3.27;1.93;;;15.80;99.90;;;;;;4992276;28;20209;-53
2022/09/01 05:44:35;;;;;;;2.70;2.10;;;15.80;99.90;;;;;;4994371;28;20205;-53
2022/09/01 05:47:04;;;;;;;4.13;2.40;;;15.80;99.90;;;;;;4988643;28;20592;-53
2022/09/01 05:49:32;;;;;;;9.63;1.97;;;15.80;99.90;;;;;;4990713;28;20578;-53
2022/09/01 05:51:59;;;;;;;4.27;2.00;;;15.80;99.90;;;;;;4991095;28;20198;-53
2022/09/01 05:54:27;;;;;;;3.20;1.90;;;15.90;99.90;;;;;;4992453;28;20694;-53
2022/09/01 05:56:57;;;;;;;2.40;1.93;;;15.90;99.90;;;;;;4991652;28;20202;-53
2022/09/01 05:59:45;;;;;;;5.57;1.77;;;16.00;99.90;;;;;;4991208;28;20717;-53
2022/09/01 06:02:12;;;;;;;1.83;1.57;;;16.00;99.90;;;;;;4984959;28;20213;-53
2022/09/01 06:04:40;;;;;;;4.83;1.83;;;15.90;99.90;;;;;;4992630;28;20247;-53
2022/09/01 06:07:08;;;;;;;3.43;2.17;;;16.00;99.90;;;;;;4987927;28;20256;-54
2022/09/01 06:09:47;;;;;;;2.80;1.97;;;16.00;99.90;;;;;;4995686;28;20221;-52
2022/09/01 06:12:22;;;;;;;1.87;1.60;;;16.10;99.90;;;;;;4993908;28;20260;-53
2022/09/01 06:14:52;;;;;;;2.93;1.60;;;16.20;99.90;;;;;;4991662;28;20201;-54
2022/09/01 06:17:23;;;;;;;4.83;1.90;;;16.20;99.90;;;;;;4984666;28;20225;-54
2022/09/01 06:19:54;;;;;;;5.00;1.80;;;16.30;99.90;;;;;;4986901;28;20259;-54
2022/09/01 06:22:22;;;;;;;2.87;1.60;;;16.30;99.90;;;;;;4993915;28;20241;-53
2022/09/01 06:24:53;;;;;;;2.00;1.80;;;16.40;99.90;;;;;;4990797;28;20251;-53
2022/09/01 06:27:26;;;;;;;2.67;1.53;;;16.50;99.90;;;;;;4987813;28;20213;-53
2022/09/01 06:29:54;;;;;;;2.60;1.83;;;16.60;99.90;;;;;;4628077;28;9999926;-51
2022/09/01 06:32:20;;;;;;;3.20;1.53;;;16.60;99.90;;;;;;4985187;28;20213;-53
2022/09/01 06:34:50;;;;;;;1.60;1.50;;;16.70;99.90;;;;;;4990875;28;20295;-53
2022/09/01 06:37:21;;;;;;;2.40;1.83;;;16.80;99.90;;;;;;4992082;28;20621;-52
2022/09/01 06:39:49;;;;;;;5.17;1.40;;;16.80;99.90;;;;;;4990302;28;20703;-54
2022/09/01 06:42:18;;;;;;;7.67;2.10;;;16.80;99.90;;;;;;4993526;28;20723;-53
2022/09/01 06:44:45;;;;;;;2.93;1.73;;;16.90;99.90;;;;;;4990519;28;20202;-53
2022/09/01 06:47:12;;;;;;;3.30;2.00;;;17.10;99.90;;;;;;4986751;28;20269;-52
2022/09/01 06:49:39;;;;;;;2.40;1.50;;;17.40;99.90;;;;;;4987886;28;20330;-53
2022/09/01 06:52:07;;;;;;;1.87;1.50;;;17.50;99.90;;;;;;4991443;28;20194;-54
2022/09/01 06:54:35;;;;;;;3.83;1.50;;;17.70;99.90;;;;;;4989883;28;20280;-54
2022/09/01 06:57:02;;;;;;;4.83;2.07;;;17.60;99.90;;;;;;4974945;28;20297;-53
2022/09/01 06:59:52;;;;;;;2.80;2.03;;;17.80;99.90;;;;;;4985932;28;20633;-53
2022/09/01 07:02:20;;;;;;;1.60;1.50;;;17.90;99.90;;;;;;4983988;28;20247;-53
2022/09/01 07:05:07;;;;;;;4.57;1.77;;;17.90;99.90;;;;;;4991421;28;20207;-55
2022/09/01 07:07:54;;;;;;;3.20;1.40;;;18.10;99.90;;;;;;4987254;28;20207;-55
2022/09/01 07:10:31;;;;;;;3.80;1.50;;;18.20;99.90;;;;;;4983957;28;20219;-55
2022/09/01 07:13:00;;;;;;;2.93;1.53;;;18.30;99.90;;;;;;4970152;28;20205;-54
2022/09/01 07:15:39;;;;;;;2.67;1.40;;;18.40;99.90;;;;;;4973081;28;20233;-54
2022/09/01 07:18:27;;;;;;;5.40;2.00;;;18.60;99.90;;;;;;4984418;28;20218;-53
2022/09/01 07:20:54;;;;;;;1.83;1.40;;;18.60;99.90;;;;;;4982236;28;20207;-53
2022/09/01 07:23:44;;;;;;;1.53;1.40;;;18.70;99.90;;;;;;4986890;28;20690;-53
2022/09/01 07:26:34;;;;;;;2.90;1.43;;;18.80;99.90;;;;;;4987110;28;20217;-54
2022/09/01 07:29:03;;;;;;;4.33;1.67;;;18.80;99.90;;;;;;4995201;28;20230;-52
2022/09/01 07:31:37;;;;;;;5.30;1.80;;;18.80;99.90;;;;;;4980247;28;20617;-53
2022/09/01 07:34:24;;;;;;;2.00;1.63;;;19.00;99.90;;;;;;4988052;28;20216;-52
2022/09/01 07:37:07;;;;;;;1.90;1.30;;;19.10;99.90;;;;;;4992978;28;20196;-53
2022/09/01 07:39:57;;;;;;;2.07;1.30;;;19.30;99.90;;;;;;4988220;28;20291;-53
2022/09/01 07:42:52;;;;;;;1.70;1.50;;;19.50;99.90;;;;;;4986006;28;20392;-51
2022/09/01 07:45:37;;;;;;;1.30;1.20;;;19.50;99.90;;;;;;4981089;28;20268;-53
2022/09/01 07:48:17;;;;;;;5.83;1.43;;;19.50;99.90;;;;;;4978982;28;20212;-53
2022/09/01 07:51:04;;;;;;;3.47;2.40;;;19.60;99.90;;;;;;4982009;28;20323;-51
2022/09/01 07:53:51;;;;;;;2.57;1.50;;;19.40;99.90;;;;;;4982469;28;20459;-53
2022/09/01 07:56:21;;;;;;;3.23;1.70;;;19.50;99.90;;;;;;4992578;28;20304;-53
2022/09/01 07:58:49;;;;;;;3.13;1.63;;;19.40;99.90;;;;;;4991599;28;20205;-53
2022/09/01 08:01:22;;;;;;;2.60;1.60;;;19.50;99.90;;;;;;4990754;28;20204;-53
2022/09/01 08:03:57;;;;;;;2.27;1.67;;;19.50;99.90;;;;;;4995454;28;20236;-53
2022/09/01 08:06:26;;;;;;;3.60;1.73;;;19.70;99.90;;;;;;4990035;28;20198;-53
2022/09/01 08:08:56;;;;;;;5.13;1.80;;;19.80;99.90;;;;;;4991092;28;20223;-54
2022/09/01 08:11:28;;;;;;;3.83;1.70;;;19.90;99.90;;;;;;4988552;28;20193;-53
2022/09/01 08:14:15;;;;;;;5.93;1.70;;;19.90;99.90;;;;;;4992388;28;20308;-53
2022/09/01 08:16:44;;;;;;;3.60;1.63;;;20.00;99.90;;;;;;4988338;28;20215;-53
2022/09/01 08:19:19;;;;;;;3.17;1.60;;;20.20;99.90;;;;;;4994076;28;20599;-53
2022/09/01 08:21:46;;;;;;;3.13;1.70;;;20.20;99.90;;;;;;4985184;28;21957;-52
2022/09/01 08:24:13;;;;;;;5.20;1.30;;;20.40;99.90;;;;;;4970430;28;20287;-52
2022/09/01 08:26:40;;;;;;;4.20;1.40;;;20.60;99.90;;;;;;4989172;28;20341;-52
2022/09/01 08:29:06;;;;;;;10.03;2.83;;;21.00;99.90;;;;;;4987318;28;20287;-53
2022/09/01 08:31:34;;;;;;;5.53;1.80;;;21.20;99.90;;;;;;4985521;28;20278;-53
2022/09/01 08:34:04;;;;;;;5.70;1.40;;;21.50;99.90;;;;;;4990887;28;20322;-53
2022/09/01 08:36:31;;;;;;;10.13;1.90;;;21.70;99.90;;;;;;4991920;28;20292;-53
2022/09/01 08:38:58;;;;;;;2.60;1.23;;;21.90;99.90;;;;;;4991434;28;20241;-53
2022/09/01 08:41:46;;;;;;;3.93;1.67;;;22.20;99.90;;;;;;4984955;28;20245;-53
2022/09/01 08:44:27;;;;;;;3.30;1.60;;;22.40;99.90;;;;;;4985918;28;20193;-55
2022/09/01 08:47:00;;;;;;;9.67;1.83;;;22.60;99.90;;;;;;4989044;28;20215;-54
2022/09/01 08:49:27;;;;;;;3.73;1.40;;;22.70;99.90;;;;;;4988873;28;20313;-53
2022/09/01 08:52:16;;;;;;;3.47;1.60;;;22.80;99.90;;;;;;4989210;28;20618;-54
2022/09/01 08:54:52;;;;;;;2.80;1.73;;;23.00;99.90;;;;;;4982084;28;20226;-52
2022/09/01 08:57:37;;;;;;;4.57;2.57;;;22.90;99.90;;;;;;4997111;28;20247;-53
2022/09/01 09:00:09;;;;;;;5.37;2.03;;;22.80;99.90;;;;;;4982671;28;20226;-53
2022/09/01 09:03:22;;;;;;;4.30;1.43;;;22.90;99.90;;;;;;4985940;28;20592;-54
2022/09/01 09:06:06;;;;;;;6.07;2.50;;;23.30;99.90;;;;;;4914305;29;20244;-54
2022/09/01 09:08:51;;;;;;;3.27;1.33;;;23.50;99.90;;;;;;4911666;29;20223;-54
2022/09/01 09:11:45;;;;;;;6.57;2.23;;;23.80;99.90;;;;;;4915371;29;20374;-54
2022/09/01 09:14:33;;;;;;;2.27;1.17;;;24.10;99.90;;;;;;4913617;29;20207;-54
2022/09/01 09:17:00;;;;;;;2.90;1.27;;;23.90;99.90;;;;;;4915530;29;20297;-53
2022/09/01 09:19:28;;;;;;;1.97;1.30;;;24.00;99.90;;;;;;4914245;29;20338;-53
2022/09/01 09:21:58;;;;;;;5.10;1.73;;;24.00;99.90;;;;;;4927929;28;20779;-53
2022/09/01 09:24:50;;;;;;;3.80;1.40;;;24.30;99.90;;;;;;4913504;29;20213;-52
2022/09/01 09:27:23;;;;;;;6.77;1.63;;;24.40;99.90;;;;;;4915373;29;20774;-53
2022/09/01 09:29:53;;;;;;;1.93;1.20;;;24.00;99.90;;;;;;4910476;29;20228;-52
2022/09/01 09:32:21;;;;;;;3.17;1.20;;;24.00;99.90;;;;;;4909090;29;20226;-53
2022/09/01 09:34:53;;;;;;;5.80;1.27;;;23.70;99.90;;;;;;4910734;29;20201;-53
2022/09/01 09:37:29;;;;;;;1.80;0.97;;;23.70;99.90;;;;;;4966899;28;20202;-53
2022/09/01 09:40:16;;;;;;;1.40;1.30;;;23.90;99.90;;;;;;4984065;28;20628;-54
2022/09/01 09:42:53;;;;;;;3.53;1.30;;;24.10;99.90;;;;;;4985846;28;20224;-53
2022/09/01 09:45:27;;;;;;;2.77;1.07;;;24.20;99.90;;;;;;4982637;28;20314;-53
2022/09/01 09:47:56;;;;;;;2.10;1.27;;;24.00;99.90;;;;;;4989491;28;20294;-54
2022/09/01 09:50:31;;;;;;;2.73;1.03;;;24.00;99.90;;;;;;4970827;28;20105;-54
2022/09/01 09:53:27;;;;;;;4.20;1.27;;;24.20;99.90;;;;;;4988961;28;20540;-56
2022/09/01 09:56:16;;;;;;;2.63;1.10;;;24.50;99.90;;;;;;4988550;28;20236;-55
2022/09/01 09:58:46;;;;;;;1.13;0.80;;;24.60;99.90;;;;;;4985932;28;20293;-55
2022/09/01 10:01:28;;;;;;;2.20;0.80;;;24.70;99.90;;;;;;4982197;28;20303;-56
2022/09/01 10:03:58;;;;;;;1.43;1.00;;;24.30;99.90;;;;;;4979973;28;20212;-55
2022/09/01 10:06:46;;;;;;;2.70;0.97;;;24.20;99.90;;;;;;4987507;28;20235;-56
2022/09/01 10:09:37;;;;;;;1.40;0.80;;;24.20;99.90;;;;;;4990788;28;20945;-55
2022/09/01 10:12:05;;;;;;;4.03;0.97;;;24.40;99.90;;;;;;4981475;28;20207;-54
2022/09/01 10:14:45;;;;;;;1.50;0.80;;;24.50;99.90;;;;;;4989691;28;20210;-55
2022/09/01 10:17:25;;;;;;;3.63;1.10;;;24.20;99.90;;;;;;4984587;28;20260;-55
2022/09/01 10:19:56;;;;;;;2.30;0.90;;;24.10;99.90;;;;;;4985537;28;20221;-55
2022/09/01 10:22:24;;;;;;;1.70;1.23;;;23.70;99.90;;;;;;4986954;28;20350;-54
2022/09/01 10:24:51;;;;;;;2.20;1.10;;;23.90;99.90;;;;;;4985122;28;20237;-54
2022/09/01 10:27:26;;;;;;;3.30;0.90;;;24.10;99.90;;;;;;4989662;28;21371;-55
2022/09/01 10:30:17;;;;;;;2.97;0.87;;;24.20;99.90;;;;;;4985081;28;20302;-54
2022/09/01 10:32:55;;;;;;;4.60;1.10;;;24.20;99.90;;;;;;4988215;28;20218;-54
2022/09/01 10:35:47;;;;;;;1.97;0.83;;;24.30;99.90;;;;;;4990189;28;20643;-54
2022/09/01 10:38:26;;;;;;;1.90;0.80;;;23.90;99.90;;;;;;4986437;28;20626;-53
2022/09/01 10:41:17;;;;;;;1.60;0.63;;;23.90;99.90;;;;;;4989242;28;20245;-54
2022/09/01 10:43:48;;;;;;;2.77;0.70;;;23.70;99.90;;;;;;4989905;28;20212;-54
2022/09/01 10:46:18;;;;;;;4.40;0.83;;;23.50;99.90;;;;;;4982066;28;20698;-54
2022/09/01 10:48:56;;;;;;;1.80;0.70;;;23.80;99.90;;;;;;4993469;28;20533;-53
2022/09/01 10:51:29;;;;;;;3.57;0.93;;;24.10;99.90;;;;;;4990094;28;20232;-54
2022/09/01 10:54:05;;;;;;;4.40;0.80;;;23.90;99.90;;;;;;4985923;28;20223;-54
2022/09/01 10:56:45;;;;;;;2.50;0.70;;;24.00;99.90;;;;;;4986650;28;20260;-54
2022/09/01 10:59:30;;;;;;;2.67;0.90;;;24.40;99.90;;;;;;4989390;28;20209;-54
2022/09/01 11:02:18;;;;;;;1.57;1.10;;;24.50;99.90;;;;;;4977170;28;20202;-54
2022/09/01 11:04:58;;;;;;;1.67;0.80;;;24.20;99.90;;;;;;4989297;28;20247;-54
2022/09/01 11:07:32;;;;;;;4.00;1.20;;;24.60;99.90;;;;;;4992273;28;20202;-54
2022/09/01 11:10:19;;;;;;;1.83;1.07;;;24.80;99.90;;;;;;4986967;28;20375;-54
2022/09/01 11:13:22;;;;;;;2.13;0.80;;;24.80;99.90;;;;;;4984450;28;20209;-55
2022/09/01 11:15:49;;;;;;;2.20;0.80;;;25.20;99.90;;;;;;4996688;28;20202;-55
2022/09/01 11:18:25;;;;;;;1.77;1.10;;;25.90;99.90;;;;;;4999340;28;20209;-54
2022/09/01 11:20:54;;;;;;;1.20;0.90;;;26.00;99.90;;;;;;4989341;28;20228;-55
2022/09/01 11:23:29;;;;;;;1.70;0.87;;;26.10;99.90;;;;;;4986612;28;20232;-54
2022/09/01 11:26:01;;;;;;;3.07;0.80;;;25.60;99.90;;;;;;4982134;28;20300;-55
2022/09/01 11:28:48;;;;;;;0.85;0.70;;;26.40;99.90;;;;;;4990562;28;20665;-55
2022/09/01 11:31:27;;;;;;;2.93;0.83;;;26.20;99.90;;;;;;4987084;28;20217;-55
2022/09/01 11:34:00;;;;;;;4.43;1.52;;;26.30;99.90;;;;;;4988796;28;20283;-54
2022/09/01 11:36:34;;;;;;;1.40;0.88;;;26.40;99.90;;;;;;4989427;28;20304;-54
2022/09/01 11:39:06;;;;;;;4.53;0.75;;;26.90;99.90;;;;;;4992062;28;20220;-54
2022/09/01 11:41:42;;;;;;;3.25;1.00;;;27.20;99.90;;;;;;4986145;28;20214;-54
2022/09/01 11:44:17;;;;;;;1.00;0.60;;;26.80;99.90;;;;;;4990461;28;20751;-55
2022/09/01 11:46:45;;;;;;;1.80;0.77;;;28.10;99.90;;;;;;4991753;28;20208;-55
2022/09/01 11:49:35;;;;;;;1.38;0.73;;;28.30;99.90;;;;;;4989863;28;20650;-54
2022/09/01 11:52:04;;;;;;;1.55;0.55;;;29.00;99.90;;;;;;4986684;28;20300;-56
2022/09/01 11:54:41;;;;;;;1.02;0.50;;;28.10;99.90;;;;;;4988824;28;20240;-56
2022/09/01 11:57:24;;;;;;;1.55;0.70;;;29.60;99.90;;;;;;4988871;28;20593;-55
2022/09/01 11:59:52;;;;;;;1.23;0.60;;;29.50;99.90;;;;;;4988550;28;20285;-56
2022/09/01 12:02:23;;;;;;;2.13;0.70;;;28.30;99.90;;;;;;4987924;28;20352;-55
2022/09/01 12:04:54;;;;;;;2.60;0.68;;;29.10;99.90;;;;;;4992619;28;20600;-56
2022/09/01 12:07:41;;;;;;;2.53;1.13;;;29.90;99.90;;;;;;4991371;28;20201;-56
2022/09/01 12:10:32;;;;;;;1.27;0.80;;;30.40;99.90;;;;;;4993648;28;20734;-54
2022/09/01 12:13:07;;;;;;;0.98;0.70;;;29.90;99.90;;;;;;4992927;28;20624;-57
2022/09/01 12:15:40;;;;;;;0.98;0.80;;;28.90;99.90;;;;;;4996498;28;20264;-55
2022/09/01 12:18:31;;;;;;;1.90;0.80;;;29.70;99.90;;;;;;4992517;28;20570;-57
2022/09/01 12:21:00;;;;;;;2.42;0.70;;;30.40;99.90;;;;;;4995100;28;20574;-55
2022/09/01 12:23:29;;;;;;;2.08;0.60;;;30.50;99.90;;;;;;4996485;28;20206;-57
2022/09/01 12:25:59;;;;;;;1.27;0.70;;;29.10;99.90;;;;;;4997269;28;20673;-56
2022/09/01 12:28:30;;;;;;;2.00;0.50;;;28.20;99.90;;;;;;4997096;28;20280;-56
2022/09/01 12:31:04;;;;;;;0.88;0.50;;;28.80;99.90;;;;;;4980604;28;20217;-58
2022/09/01 12:33:34;;;;;;;1.95;0.90;;;28.50;99.90;;;;;;4997428;28;20205;-56
2022/09/01 12:36:20;;;;;;;2.92;0.70;;;30.30;99.90;;;;;;4998374;28;20216;-56
2022/09/01 12:38:47;;;;;;;3.33;0.80;;;30.50;99.90;;;;;;4998597;28;20198;-55
2022/09/01 12:41:36;;;;;;;3.22;0.60;;;30.20;99.90;;;;;;4998078;28;20233;-55
2022/09/01 12:44:29;;;;;;;1.48;0.75;;;30.50;99.90;;;;;;4998489;28;20547;-55
2022/09/01 12:46:59;;;;;;;0.98;0.50;;;31.60;99.90;;;;;;4996756;28;20214;-57
2022/09/01 12:49:44;;;;;;;0.88;0.40;;;31.50;99.90;;;;;;4999150;28;20256;-55
2022/09/01 12:52:20;;;;;;;3.70;0.70;;;31.20;99.90;;;;;;4997848;28;20250;-57
2022/09/01 12:54:51;;;;;;;2.70;0.70;;;30.40;99.90;;;;;;4998917;28;20257;-55
2022/09/01 12:57:34;;;;;;;2.53;0.55;;;30.30;99.90;;;;;;4997759;28;20225;-56
2022/09/01 13:00:22;;;;;;;2.88;0.85;;;30.70;99.90;;;;;;4997586;28;20253;-56
2022/09/01 13:03:03;;;;;;;0.85;0.52;;;30.30;99.90;;;;;;4997302;28;20209;-57
2022/09/01 13:05:40;;;;;;;0.40;0.40;;;30.70;99.90;;;;;;4998064;28;20206;-58
2022/09/01 13:08:38;;;;;;;1.67;0.60;;;31.30;99.90;;;;;;4998689;28;20209;-57
2022/09/01 13:11:13;;;;;;;0.85;0.50;;;30.40;99.90;;;;;;4982544;28;20666;-57
2022/09/01 13:13:39;;;;;;;2.15;0.60;;;29.70;99.90;;;;;;4997126;28;20201;-56
2022/09/01 13:16:12;;;;;;;1.20;0.50;;;29.80;99.90;;;;;;4996819;28;20296;-56
2022/09/01 13:18:41;;;;;;;2.63;0.70;;;30.00;99.90;;;;;;4997502;28;20206;-56
2022/09/01 13:21:30;;;;;;;4.07;0.82;;;31.50;99.90;;;;;;4997001;28;20209;-56
2022/09/01 13:23:57;;;;;;;3.30;0.50;;;31.80;99.90;;;;;;4999258;28;20674;-56
2022/09/01 13:26:25;;;;;;;1.52;0.50;;;30.50;99.90;;;;;;5012012;28;20252;-56